KEND/END METAR and TAF weather

Enter ICAO airport designator
Station Type Date Time Source
KEND METAR 2022/01/25 03:56 UTC NOAA

KEND 250356Z AUTO 06011G19KT 10SM SCT190 06/M03 A3000 RMK AO2 SLP164 T00641030


Station Type Date Time Source
KEND Decoded METAR 2022/01/25 03:56 UTC NOAA

Vance Air Force Base / Enid, OK, United States (KEND) 36-20N 097-55W
Jan 24, 2022 - 10:56 PM EST / 2022.01.25 0356 UTC
Wind: from the ENE (060 degrees) at 13 MPH (11 KT) gusting to 22 MPH (19 KT):0
Visibility: 10 mile(s):0
Sky conditions: partly cloudy
Temperature: 43.5 F (6.4 C)
Dew Point: 26.6 F (-3.0 C)
Relative Humidity: 50%
Pressure (altimeter): 30 in. Hg (1015 hPa)
ob: KEND 250356Z AUTO 06011G19KT 10SM SCT190 06/M03 A3000 RMK AO2 SLP164 T00641030
cycle: 4

Station Type Date Time Source
KEND TAF 2022/01/25 02:49 UTC NOAA

TAF
AMD KEND 250234Z 2502/2524 34010KT 9999 SKC QNH2980INS
BECMG 2504/2505 08009KT 9999 BKN100 QNH2995INS
BECMG 2518/2519 05012G22KT 9999 BKN060 QNH3025INS TX06/2521Z TNM02/2514Z LAST NO
AMDS AFT 2502 NEXT 2510

Example: see airport list